Time;durP1;ratioP1;P1;durP2;ratioP2;P2;SDS_P1;SDS_P2;PMS_P1;PMS_P2;Temp;Humidity;BMP_temperature;BMP_pressure;BME280_temperature;BME280_humidity;BME280_pressure;Samples;Min_cycle;Max_cycle;Signal;HPM_P1;HPM_P2
2021/04/01 00:00:16;;;;;;;0.50;0.50;;;18.90;60.90;;;;;;4197969;28;20507;-44
2021/04/01 00:02:37;;;;;;;1.70;1.55;;;18.90;60.90;;;;;;4197904;28;20564;-43
2021/04/01 00:04:59;;;;;;;3.30;2.03;;;18.90;60.90;;;;;;4197147;28;20064;-46
2021/04/01 00:07:21;;;;;;;0.85;0.85;;;18.80;60.90;;;;;;4197900;28;20161;-43
2021/04/01 00:09:42;;;;;;;1.55;1.23;;;18.80;61.00;;;;;;4197922;28;20063;-44
2021/04/01 00:12:03;;;;;;;;;;;18.80;61.00;;;;;;4198164;28;20055;-43
2021/04/01 00:14:26;;;;;;;1.35;1.35;;;18.80;61.10;;;;;;4198023;28;20349;-44
2021/04/01 00:16:47;;;;;;;0.70;0.68;;;18.80;61.10;;;;;;4197868;28;20057;-43
2021/04/01 00:19:08;;;;;;;1.00;1.00;;;18.80;61.00;;;;;;4197794;28;20060;-48
2021/04/01 00:21:30;;;;;;;1.30;1.20;;;18.80;61.20;;;;;;4197796;28;20118;-46
2021/04/01 00:23:51;;;;;;;1.55;1.48;;;18.70;61.10;;;;;;4197167;28;20059;-47
2021/04/01 00:26:11;;;;;;;0.75;0.75;;;18.70;61.20;;;;;;4197555;28;20131;-46
2021/04/01 00:28:32;;;;;;;1.02;0.98;;;18.70;61.30;;;;;;4197774;28;20052;-46
2021/04/01 00:30:53;;;;;;;1.20;1.13;;;18.70;61.40;;;;;;4197665;28;20057;-47
2021/04/01 00:33:15;;;;;;;2.67;2.45;;;18.70;61.50;;;;;;4197761;28;20056;-49
2021/04/01 00:35:36;;;;;;;2.28;1.85;;;18.70;62.40;;;;;;4197569;28;20399;-46
2021/04/01 00:37:57;;;;;;;1.83;1.67;;;18.70;61.50;;;;;;4197315;28;20491;-48
2021/04/01 00:40:20;;;;;;;2.53;2.33;;;18.70;61.50;;;;;;4197392;28;20096;-44
2021/04/01 00:42:41;;;;;;;1.35;1.17;;;18.70;61.60;;;;;;4197210;28;20049;-46
2021/04/01 00:45:06;;;;;;;0.85;0.85;;;18.70;61.70;;;;;;4197555;28;20052;-44
2021/04/01 00:47:33;;;;;;;2.60;2.42;;;18.70;61.50;;;;;;4197277;28;20101;-44
2021/04/01 00:49:54;;;;;;;1.92;1.40;;;18.70;61.60;;;;;;4196923;28;20127;-44
2021/04/01 00:52:15;;;;;;;2.88;2.60;;;18.60;61.60;;;;;;4195222;28;20053;-45
2021/04/01 00:54:37;;;;;;;1.42;1.33;;;18.70;61.60;;;;;;4197309;28;20465;-44
2021/04/01 00:56:58;;;;;;;1.55;1.20;;;18.60;61.60;;;;;;4197230;28;20519;-44
2021/04/01 00:59:20;;;;;;;1.80;1.65;;;18.60;61.80;;;;;;4196216;28;20098;-44
2021/04/01 01:01:45;;;;;;;0.47;0.47;;;18.60;61.70;;;;;;4196964;28;20117;-43
2021/04/01 01:04:07;;;;;;;1.15;1.15;;;18.60;61.70;;;;;;4184667;28;20128;-43
2021/04/01 01:06:28;;;;;;;0.40;0.40;;;18.60;61.70;;;;;;4195617;28;20068;-44
2021/04/01 01:08:49;;;;;;;2.80;2.17;;;18.60;61.60;;;;;;4196746;28;20049;-43
2021/04/01 01:11:11;;;;;;;6.72;1.42;;;18.60;61.70;;;;;;4197046;28;20082;-44
2021/04/01 01:13:32;;;;;;;2.10;1.83;;;18.60;61.70;;;;;;4196893;28;20053;-45
2021/04/01 01:15:53;;;;;;;;;;;18.60;61.80;;;;;;4197197;28;20068;-45
2021/04/01 01:18:14;;;;;;;2.00;1.65;;;18.60;61.80;;;;;;4196888;28;20037;-44
2021/04/01 01:20:35;;;;;;;1.00;1.00;;;18.60;61.80;;;;;;4195655;28;20210;-46
2021/04/01 01:23:11;;;;;;;0.63;0.63;;;18.60;61.80;;;;;;4190948;28;20055;-44
2021/04/01 01:25:33;;;;;;;8.13;1.48;;;18.60;61.90;;;;;;4196723;28;20044;-44
2021/04/01 01:27:55;;;;;;;2.28;2.08;;;18.50;61.80;;;;;;4196705;28;20059;-45
2021/04/01 01:30:19;;;;;;;1.48;1.48;;;18.50;62.20;;;;;;4196665;28;20051;-45
2021/04/01 01:32:43;;;;;;;1.13;1.13;;;18.50;61.90;;;;;;4196618;28;20131;-43
2021/04/01 01:35:06;;;;;;;0.82;0.82;;;18.50;61.90;;;;;;4196638;28;20604;-43
2021/04/01 01:37:28;;;;;;;1.65;1.58;;;18.50;62.00;;;;;;4196208;28;20482;-44
2021/04/01 01:39:49;;;;;;;0.38;0.38;;;18.50;62.10;;;;;;4196409;28;20503;-44
2021/04/01 01:42:12;;;;;;;0.70;0.70;;;18.50;62.10;;;;;;4196231;28;20048;-44
2021/04/01 01:44:34;;;;;;;0.45;0.45;;;18.50;62.10;;;;;;4196491;28;20055;-46
2021/04/01 01:46:55;;;;;;;2.97;1.98;;;18.50;62.10;;;;;;4196408;28;20056;-44
2021/04/01 01:49:16;;;;;;;2.70;2.60;;;18.50;62.20;;;;;;4180284;28;20102;-44
2021/04/01 01:51:37;;;;;;;1.27;1.27;;;18.50;62.20;;;;;;4196207;28;20683;-44
2021/04/01 01:53:58;;;;;;;1.65;1.17;;;18.50;62.30;;;;;;4179761;28;20064;-43
2021/04/01 01:56:20;;;;;;;0.40;0.40;;;18.50;62.40;;;;;;4179789;28;20103;-46
2021/04/01 01:58:42;;;;;;;1.65;1.55;;;18.50;62.40;;;;;;4179594;28;20081;-43
2021/04/01 02:01:05;;;;;;;2.60;2.50;;;18.50;62.40;;;;;;4185178;28;20071;-43
2021/04/01 02:03:27;;;;;;;3.20;1.50;;;18.40;62.30;;;;;;4195893;28;20044;-43
2021/04/01 02:05:47;;;;;;;2.65;1.10;;;18.50;62.40;;;;;;4195841;28;20499;-43
2021/04/01 02:08:10;;;;;;;0.60;0.60;;;18.40;63.20;;;;;;4195889;28;20056;-45
2021/04/01 02:10:34;;;;;;;6.38;1.48;;;18.50;62.40;;;;;;4196234;28;20489;-43
2021/04/01 02:12:55;;;;;;;2.60;2.13;;;18.40;62.20;;;;;;4195921;28;20101;-45
2021/04/01 02:15:21;;;;;;;1.13;1.13;;;18.40;62.30;;;;;;4196017;28;20063;-44
2021/04/01 02:17:42;;;;;;;1.38;1.38;;;18.40;62.30;;;;;;4195645;28;20045;-44
2021/04/01 02:20:04;;;;;;;3.30;3.17;;;18.40;62.30;;;;;;4196073;28;20068;-45
2021/04/01 02:22:25;;;;;;;0.38;0.38;;;18.40;62.60;;;;;;4186959;28;20128;-45
2021/04/01 02:24:46;;;;;;;;;;;18.40;62.60;;;;;;4195794;28;20837;-44
2021/04/01 02:27:07;;;;;;;2.38;1.45;;;18.40;62.60;;;;;;4195938;28;19970;-45
2021/04/01 02:29:28;;;;;;;1.17;1.17;;;18.40;62.90;;;;;;4195756;28;20485;-44
2021/04/01 02:31:50;;;;;;;1.77;1.67;;;18.40;62.90;;;;;;4195598;28;20090;-43
2021/04/01 02:34:11;;;;;;;1.58;1.58;;;18.40;63.00;;;;;;4194619;28;20105;-44
2021/04/01 02:36:32;;;;;;;4.85;3.10;;;18.40;62.90;;;;;;4195345;28;20056;-43
2021/04/01 02:38:53;;;;;;;2.55;2.35;;;18.40;63.00;;;;;;4195527;28;20048;-43
2021/04/01 02:41:13;;;;;;;1.00;1.00;;;18.40;63.00;;;;;;4195129;28;20281;-45
2021/04/01 02:43:34;;;;;;;0.60;0.60;;;18.40;63.10;;;;;;4194646;28;20072;-44
2021/04/01 02:45:55;;;;;;;2.25;2.15;;;18.40;63.00;;;;;;4195851;28;20049;-44
2021/04/01 02:48:17;;;;;;;1.35;1.35;;;18.40;63.10;;;;;;4195478;28;20117;-44
2021/04/01 02:50:38;;;;;;;4.47;2.45;;;18.40;63.10;;;;;;4195754;28;20477;-43
2021/04/01 02:52:59;;;;;;;;;;;18.30;63.00;;;;;;4195755;28;20103;-42
2021/04/01 02:55:21;;;;;;;0.55;0.55;;;18.30;63.10;;;;;;4195258;28;19924;-44
2021/04/01 02:57:42;;;;;;;3.22;3.03;;;18.30;63.10;;;;;;4195561;28;20135;-45
2021/04/01 03:00:08;;;;;;;1.67;1.58;;;18.30;63.10;;;;;;4195137;28;20082;-43
2021/04/01 03:02:29;;;;;;;0.75;0.75;;;18.30;63.10;;;;;;4194465;28;20106;-45
2021/04/01 03:04:51;;;;;;;4.47;1.38;;;18.30;63.10;;;;;;4195265;28;20128;-44
2021/04/01 03:07:11;;;;;;;2.78;1.98;;;18.30;63.20;;;;;;4195090;28;20155;-43
2021/04/01 03:09:33;;;;;;;7.00;3.13;;;18.30;63.30;;;;;;4195493;28;20504;-46
2021/04/01 03:11:54;;;;;;;1.27;1.27;;;18.30;63.10;;;;;;4195332;28;20131;-44
2021/04/01 03:14:15;;;;;;;7.93;3.13;;;18.30;63.00;;;;;;4195393;28;20058;-42
2021/04/01 03:16:35;;;;;;;4.10;1.95;;;18.20;63.00;;;;;;4197079;28;20064;-44
2021/04/01 03:18:57;;;;;;;1.58;1.50;;;18.20;63.80;;;;;;4198709;28;20106;-44
2021/04/01 03:21:18;;;;;;;8.55;3.13;;;18.20;63.00;;;;;;4198242;28;20071;-44
2021/04/01 03:23:39;;;;;;;1.65;1.50;;;18.20;63.20;;;;;;4198624;28;20517;-44
2021/04/01 03:26:00;;;;;;;2.05;1.95;;;18.10;63.10;;;;;;4198675;28;20114;-48
2021/04/01 03:28:21;;;;;;;2.95;2.80;;;18.10;63.00;;;;;;4194946;28;20068;-48
2021/04/01 03:30:48;;;;;;;3.42;3.22;;;18.10;63.10;;;;;;4191009;28;20055;-47
2021/04/01 03:33:09;;;;;;;0.73;0.73;;;18.10;63.10;;;;;;4180926;28;20099;-48
2021/04/01 03:35:30;;;;;;;1.88;1.88;;;18.10;63.10;;;;;;4181991;28;20052;-44
2021/04/01 03:37:55;;;;;;;2.97;2.78;;;18.10;63.10;;;;;;4197560;28;20053;-45
2021/04/01 03:40:17;;;;;;;1.75;1.70;;;18.10;63.20;;;;;;4198061;28;20048;-44
2021/04/01 03:42:38;;;;;;;5.03;4.30;;;18.10;63.20;;;;;;4198389;28;20445;-48
2021/04/01 03:45:00;;;;;;;0.93;0.93;;;18.00;63.10;;;;;;4198398;28;20135;-46
2021/04/01 03:47:21;;;;;;;1.65;1.55;;;18.00;63.10;;;;;;4198101;28;20102;-46
2021/04/01 03:49:42;;;;;;;1.55;1.45;;;18.00;63.10;;;;;;4197818;28;20044;-45
2021/04/01 03:52:03;;;;;;;15.27;1.63;;;18.00;63.20;;;;;;4198058;28;20053;-43
2021/04/01 03:54:25;;;;;;;6.40;1.45;;;17.90;63.20;;;;;;4198152;28;20053;-43
2021/04/01 03:56:48;;;;;;;1.40;1.17;;;17.90;63.30;;;;;;4197176;28;20056;-44
2021/04/01 03:59:12;;;;;;;2.60;2.47;;;17.90;63.20;;;;;;4197792;28;20499;-44
2021/04/01 04:04:26;;;;;;;2.42;1.75;;;17.90;63.20;;;;;;4197689;28;20045;-43
2021/04/01 04:07:10;;;;;;;13.25;2.90;;;17.90;63.20;;;;;;4197877;28;20065;-44
2021/04/01 04:09:46;;;;;;;1.27;1.27;;;17.90;63.40;;;;;;4197702;28;20045;-44
2021/04/01 04:12:16;;;;;;;2.63;1.63;;;17.90;63.30;;;;;;4197943;28;20123;-46
2021/04/01 04:14:39;;;;;;;0.63;0.63;;;17.90;63.30;;;;;;4197981;28;20053;-46
2021/04/01 04:17:00;;;;;;;3.15;1.42;;;17.90;63.20;;;;;;4197203;28;20052;-43
2021/04/01 04:19:21;;;;;;;2.42;2.33;;;17.80;63.20;;;;;;4197720;28;20053;-45
2021/04/01 04:21:42;;;;;;;7.25;2.00;;;17.80;63.20;;;;;;4197469;28;20048;-43
2021/04/01 04:24:04;;;;;;;5.25;4.80;;;17.80;63.30;;;;;;4197782;28;20053;-44
2021/04/01 04:26:26;;;;;;;2.90;2.80;;;17.80;63.30;;;;;;4197680;28;20138;-44
2021/04/01 04:28:47;;;;;;;2.95;1.67;;;17.80;63.20;;;;;;4197459;28;20075;-44
2021/04/01 04:31:08;;;;;;;1.33;1.33;;;17.80;63.00;;;;;;4197577;28;20063;-46
2021/04/01 04:33:29;;;;;;;1.60;1.50;;;17.70;63.00;;;;;;4197617;28;20131;-44
2021/04/01 04:35:51;;;;;;;2.83;2.47;;;17.70;63.20;;;;;;4196182;28;20052;-44
2021/04/01 04:38:12;;;;;;;;;;;17.70;63.30;;;;;;4197817;28;20044;-44
2021/04/01 04:40:33;;;;;;;6.77;1.57;;;17.70;63.40;;;;;;4197390;28;19927;-44
2021/04/01 04:42:55;;;;;;;1.48;1.38;;;17.60;63.50;;;;;;4197565;28;20063;-44
2021/04/01 04:45:16;;;;;;;1.77;1.75;;;17.60;63.50;;;;;;4197104;28;20101;-44
2021/04/01 04:47:38;;;;;;;;;;;17.60;63.60;;;;;;4197393;28;20115;-43
2021/04/01 04:49:59;;;;;;;0.45;0.45;;;17.50;63.60;;;;;;4196959;28;19928;-45
2021/04/01 04:52:21;;;;;;;2.70;2.53;;;17.50;63.70;;;;;;4197197;28;20076;-43
2021/04/01 04:54:44;;;;;;;1.20;1.13;;;17.50;63.70;;;;;;4197314;28;20053;-44
2021/04/01 04:57:13;;;;;;;2.50;2.45;;;17.50;63.70;;;;;;4197018;28;20770;-44
2021/04/01 04:59:38;;;;;;;2.22;2.15;;;17.50;63.70;;;;;;4197233;28;20076;-44
2021/04/01 05:04:42;;;;;;;2.85;2.58;;;17.50;63.60;;;;;;4196506;28;20128;-44
2021/04/01 05:07:04;;;;;;;2.28;2.17;;;17.50;63.40;;;;;;4196817;28;20052;-44
2021/04/01 05:09:25;;;;;;;3.60;2.28;;;17.40;63.50;;;;;;4197052;28;20488;-43
2021/04/01 05:11:46;;;;;;;5.10;1.38;;;17.40;63.50;;;;;;4196964;28;20487;-44
2021/04/01 05:14:07;;;;;;;0.32;0.32;;;17.30;63.40;;;;;;4197013;28;20159;-44
2021/04/01 05:16:29;;;;;;;1.13;1.08;;;17.30;63.60;;;;;;4196500;28;20498;-45
2021/04/01 05:18:50;;;;;;;2.85;2.30;;;17.30;63.70;;;;;;4196463;28;20058;-44
2021/04/01 05:21:12;;;;;;;;;;;17.30;63.80;;;;;;4196976;28;20123;-43
2021/04/01 05:23:37;;;;;;;1.63;1.63;;;17.30;64.00;;;;;;4196658;28;20315;-45
2021/04/01 05:28:37;;;;;;;2.15;2.00;;;17.30;64.70;;;;;;4196344;28;20056;-45
2021/04/01 05:31:02;;;;;;;0.75;0.75;;;17.30;64.80;;;;;;4196271;28;20481;-42
2021/04/01 05:33:31;;;;;;;1.77;0.68;;;17.30;65.30;;;;;;4196315;28;20388;-46
2021/04/01 05:35:52;;;;;;;0.77;0.57;;;17.30;65.30;;;;;;4196160;28;20491;-44
2021/04/01 05:38:13;;;;;;;8.07;1.35;;;17.30;64.90;;;;;;4195629;28;20052;-44
2021/04/01 05:40:34;;;;;;;0.10;0.10;;;17.30;64.30;;;;;;4196380;28;20139;-45
2021/04/01 05:42:56;;;;;;;0.50;0.50;;;17.30;64.30;;;;;;4196121;28;20053;-43
2021/04/01 05:45:22;;;;;;;1.02;1.02;;;17.30;64.10;;;;;;4196321;28;20139;-43
2021/04/01 05:47:46;;;;;;;0.63;0.63;;;17.20;63.90;;;;;;4196363;28;20056;-43
2021/04/01 05:50:18;;;;;;;1.23;1.23;;;17.20;63.90;;;;;;4195718;28;20060;-43
2021/04/01 05:53:25;;;;;;;1.30;1.30;;;17.20;63.70;;;;;;4194974;28;20048;-44
2021/04/01 06:03:52;;;;;;;1.75;1.65;;;17.00;63.10;;;;;;4196210;28;20478;-43
2021/04/01 06:06:18;;;;;;;0.20;0.20;;;17.00;62.90;;;;;;4195240;28;20130;-44
2021/04/01 06:08:45;;;;;;;0.17;0.17;;;17.00;62.60;;;;;;4196318;28;20057;-43
2021/04/01 06:11:06;;;;;;;0.10;0.10;;;17.00;62.70;;;;;;4195702;28;20131;-43
2021/04/01 06:13:31;;;;;;;0.10;0.10;;;16.90;62.50;;;;;;4195695;28;20048;-44
2021/04/01 06:15:52;;;;;;;4.95;1.15;;;16.90;62.40;;;;;;4195958;28;20418;-43
2021/04/01 06:18:15;;;;;;;0.98;0.98;;;16.90;62.40;;;;;;4196130;28;20052;-44
2021/04/01 06:20:38;;;;;;;0.55;0.32;;;16.90;62.20;;;;;;4196168;28;20049;-43
2021/04/01 06:23:02;;;;;;;0.17;0.13;;;16.80;62.10;;;;;;4196067;28;20067;-43
2021/04/01 06:25:23;;;;;;;0.05;0.05;;;16.90;62.20;;;;;;4196139;28;20056;-44
2021/04/01 06:27:51;;;;;;;4.97;1.88;;;16.90;62.00;;;;;;4195938;28;20049;-43
2021/04/01 06:30:20;;;;;;;1.30;1.17;;;16.80;62.40;;;;;;4195963;28;20074;-44
2021/04/01 06:32:45;;;;;;;2.63;2.00;;;16.80;61.80;;;;;;4195965;28;20476;-43
2021/04/01 06:35:19;;;;;;;0.00;0.00;;;16.80;61.60;;;;;;4195756;28;20494;-43
2021/04/01 06:38:01;;;;;;;0.10;0.10;;;16.80;61.60;;;;;;4195598;28;20068;-42
2021/04/01 06:40:24;;;;;;;0.22;0.22;;;16.80;61.60;;;;;;4185296;28;20486;-42
2021/04/01 06:42:53;;;;;;;0.00;0.00;;;16.80;61.40;;;;;;4195629;28;20052;-43
2021/04/01 06:45:19;;;;;;;0.00;0.00;;;16.80;61.30;;;;;;4192616;28;20438;-44
2021/04/01 06:47:42;;;;;;;2.20;0.90;;;16.80;61.20;;;;;;4194572;28;20052;-43
2021/04/01 06:50:07;;;;;;;0.30;0.30;;;16.80;61.20;;;;;;4195312;28;20574;-45
2021/04/01 06:52:34;;;;;;;0.00;0.00;;;16.70;61.10;;;;;;4184262;28;20056;-46
2021/04/01 06:55:02;;;;;;;0.20;0.20;;;16.70;61.10;;;;;;4195499;28;20053;-43
2021/04/01 06:57:33;;;;;;;0.00;0.00;;;16.70;61.00;;;;;;4194705;28;20463;-44
2021/04/01 07:00:22;;;;;;;0.20;0.20;;;16.70;61.00;;;;;;4195269;28;20532;-43
2021/04/01 07:02:54;;;;;;;0.00;0.00;;;16.70;61.00;;;;;;4195462;28;20113;-43
2021/04/01 07:05:26;;;;;;;0.10;0.10;;;16.70;60.90;;;;;;4195323;28;20059;-42
2021/04/01 07:07:54;;;;;;;0.43;0.43;;;16.70;60.90;;;;;;4195366;28;20056;-43
2021/04/01 07:10:23;;;;;;;0.00;0.00;;;16.70;60.80;;;;;;4195647;28;20585;-43
2021/04/01 07:12:49;;;;;;;0.03;0.03;;;16.70;60.80;;;;;;4195468;28;20055;-47
2021/04/01 07:15:14;;;;;;;0.00;0.00;;;16.70;60.80;;;;;;4195165;28;20122;-45
2021/04/01 07:17:41;;;;;;;0.00;0.00;;;16.60;60.60;;;;;;4194981;28;20044;-43
2021/04/01 07:20:28;;;;;;;0.00;0.00;;;16.60;60.60;;;;;;4195395;28;20556;-43
2021/04/01 07:23:19;;;;;;;0.00;0.00;;;16.60;60.80;;;;;;4195379;28;20427;-46
2021/04/01 07:45:03;;;;;;;0.10;0.10;;;16.40;61.20;;;;;;4195478;28;20048;-44
2021/04/01 07:47:29;;;;;;;0.00;0.00;;;16.40;61.10;;;;;;4195167;28;20063;-43
2021/04/01 07:49:54;;;;;;;0.10;0.10;;;16.40;61.10;;;;;;4195338;28;20437;-44
2021/04/01 07:52:18;;;;;;;0.00;0.00;;;16.40;61.30;;;;;;4194808;28;20059;-43
2021/04/01 07:54:55;;;;;;;0.22;0.22;;;16.30;61.20;;;;;;4178575;28;20110;-44
2021/04/01 08:00:09;;;;;;;0.28;0.28;;;16.30;61.30;;;;;;4191954;28;20072;-46
2021/04/01 08:02:49;;;;;;;0.55;0.55;;;16.20;61.40;;;;;;4179964;28;20486;-43
2021/04/01 08:05:13;;;;;;;0.10;0.10;;;16.20;61.20;;;;;;4181217;28;20049;-48
2021/04/01 08:07:39;;;;;;;1.00;0.95;;;16.20;61.20;;;;;;4181337;28;20060;-46
2021/04/01 08:10:06;;;;;;;0.20;0.20;;;16.20;61.20;;;;;;4186305;28;20057;-49
2021/04/01 08:12:31;;;;;;;0.10;0.10;;;16.20;61.20;;;;;;4198118;28;20049;-48
2021/04/01 08:14:59;;;;;;;0.30;0.30;;;16.20;61.20;;;;;;4197874;28;20049;-45
2021/04/01 08:17:24;;;;;;;0.05;0.05;;;16.30;61.30;;;;;;4197832;28;20113;-43
2021/04/01 08:19:48;;;;;;;0.00;0.00;;;16.30;61.30;;;;;;4198057;28;20056;-50
2021/04/01 08:22:31;;;;;;;0.00;0.00;;;16.30;61.30;;;;;;4197786;28;20083;-47
2021/04/01 08:25:16;;;;;;;2.08;1.00;;;16.30;61.30;;;;;;4197823;28;20059;-45
2021/04/01 08:28:13;;;;;;;0.00;0.00;;;16.40;61.30;;;;;;4183011;28;20064;-44
2021/04/01 08:34:13;;;;;;;0.25;0.25;;;16.40;61.30;;;;;;4181233;28;20122;-43
2021/04/01 08:36:55;;;;;;;1.27;1.27;;;16.30;61.30;;;;;;4179808;28;20053;-43
2021/04/01 08:39:37;;;;;;;0.10;0.10;;;16.30;61.30;;;;;;4181096;28;20525;-44
2021/04/01 08:42:48;;;;;;;0.00;0.00;;;16.30;61.10;;;;;;4196637;28;20550;-44
2021/04/01 08:46:14;;;;;;;0.00;0.00;;;16.30;61.10;;;;;;4197451;28;20056;-43
2021/04/01 08:49:02;;;;;;;0.00;0.00;;;16.30;60.90;;;;;;4145351;28;20053;-45
2021/04/01 08:51:55;;;;;;;0.00;0.00;;;16.20;60.80;;;;;;4180909;28;20099;-43
2021/04/01 08:54:26;;;;;;;0.00;0.00;;;16.20;60.80;;;;;;4180761;28;20796;-43
2021/04/01 08:56:50;;;;;;;;;;;16.20;60.80;;;;;;4181132;28;20053;-42
2021/04/01 08:59:21;;;;;;;0.20;0.20;;;16.20;60.80;;;;;;4190464;28;19928;-44
2021/04/01 09:01:44;;;;;;;0.15;0.15;;;16.20;60.90;;;;;;4197062;28;20060;-43
2021/04/01 09:04:07;;;;;;;5.05;1.75;;;16.20;60.90;;;;;;4197197;28;20499;-42
2021/04/01 09:06:34;;;;;;;0.00;0.00;;;16.20;61.00;;;;;;4196912;28;20056;-43
2021/04/01 09:09:09;;;;;;;0.00;0.00;;;16.30;60.90;;;;;;4197198;28;20049;-44
2021/04/01 09:11:36;;;;;;;0.03;0.03;;;16.30;60.80;;;;;;4196975;28;20467;-43
2021/04/01 09:13:58;;;;;;;1.08;1.08;;;16.30;60.70;;;;;;4195904;28;20060;-43
2021/04/01 09:16:39;;;;;;;0.00;0.00;;;16.30;60.70;;;;;;4196757;28;20106;-43
2021/04/01 09:19:03;;;;;;;0.00;0.00;;;16.30;60.40;;;;;;4196952;28;20056;-43
2021/04/01 09:21:32;;;;;;;10.95;3.30;;;16.30;60.40;;;;;;4196977;28;20494;-42
2021/04/01 09:23:56;;;;;;;0.10;0.10;;;16.30;60.30;;;;;;4184002;28;20053;-43
2021/04/01 09:26:26;;;;;;;0.22;0.22;;;16.30;60.20;;;;;;4180110;28;20057;-46
2021/04/01 09:28:48;;;;;;;0.00;0.00;;;16.30;60.10;;;;;;4195859;28;20056;-49
2021/04/01 09:31:11;;;;;;;0.00;0.00;;;16.30;60.20;;;;;;4189708;28;20052;-46
2021/04/01 09:33:34;;;;;;;0.10;0.10;;;16.30;60.00;;;;;;4180206;28;20450;-43
2021/04/01 09:36:06;;;;;;;0.00;0.00;;;16.30;60.20;;;;;;4180124;28;20049;-43
2021/04/01 09:38:37;;;;;;;7.55;0.93;;;16.30;60.10;;;;;;4179955;28;20482;-43
2021/04/01 09:40:58;;;;;;;0.13;0.13;;;16.40;60.10;;;;;;4180682;28;20126;-44
2021/04/01 09:43:20;;;;;;;1.38;0.52;;;16.40;60.00;;;;;;4195950;28;20515;-43
2021/04/01 09:45:42;;;;;;;0.00;0.00;;;16.40;59.80;;;;;;4195534;28;20488;-43
2021/04/01 09:48:05;;;;;;;0.00;0.00;;;16.30;59.70;;;;;;4193027;28;20052;-43
2021/04/01 09:50:30;;;;;;;0.57;0.35;;;16.40;59.60;;;;;;4189635;28;20048;-43
2021/04/01 09:52:57;;;;;;;0.00;0.00;;;16.30;59.80;;;;;;4195751;28;20052;-44
2021/04/01 09:55:21;;;;;;;0.00;0.00;;;16.30;60.00;;;;;;4179759;28;20057;-44
2021/04/01 09:57:45;;;;;;;0.00;0.00;;;16.30;60.30;;;;;;4184950;28;20074;-43
2021/04/01 10:00:16;;;;;;;2.83;1.95;;;16.40;60.70;;;;;;4196085;28;20418;-43
2021/04/01 10:02:41;;;;;;;0.00;0.00;;;16.40;60.40;;;;;;4181441;28;20052;-43
2021/04/01 10:05:04;;;;;;;1.25;1.17;;;16.50;60.50;;;;;;4196260;28;20483;-44
2021/04/01 10:07:28;;;;;;;0.75;0.75;;;16.60;60.80;;;;;;4196059;28;20425;-43
2021/04/01 10:09:50;;;;;;;1.38;1.00;;;16.60;60.20;;;;;;4192545;28;20442;-44
2021/04/01 10:12:15;;;;;;;0.10;0.10;;;16.60;60.00;;;;;;4189695;28;20110;-42
2021/04/01 10:14:49;;;;;;;0.00;0.00;;;16.60;59.80;;;;;;4190302;28;20052;-46
2021/04/01 10:17:12;;;;;;;0.75;0.75;;;16.60;59.60;;;;;;4195595;28;20128;-42
2021/04/01 10:19:38;;;;;;;1.65;1.55;;;16.60;59.50;;;;;;4195727;28;20446;-43
2021/04/01 10:22:00;;;;;;;0.10;0.10;;;16.60;59.40;;;;;;4194303;28;20072;-43
2021/04/01 10:24:24;;;;;;;1.35;0.68;;;16.60;59.60;;;;;;4187544;28;20392;-42
2021/04/01 10:26:49;;;;;;;0.80;0.47;;;16.60;59.50;;;;;;4195805;28;20764;-43
2021/04/01 10:29:19;;;;;;;0.20;0.20;;;16.50;59.00;;;;;;4195802;28;20063;-42
2021/04/01 10:31:44;;;;;;;0.00;0.00;;;16.50;59.00;;;;;;4195975;28;20053;-43
2021/04/01 10:34:33;;;;;;;1.85;1.67;;;16.60;58.80;;;;;;4195392;28;20048;-44
2021/04/01 10:36:58;;;;;;;0.15;0.15;;;16.60;58.80;;;;;;4195603;28;20060;-44
2021/04/01 10:39:20;;;;;;;19.80;0.88;;;16.60;58.40;;;;;;4195803;28;20118;-44
2021/04/01 10:41:44;;;;;;;;;;;16.60;58.20;;;;;;4192591;28;20044;-47
2021/04/01 10:44:10;;;;;;;0.00;0.00;;;16.60;58.10;;;;;;4189987;28;19982;-48
2021/04/01 10:46:34;;;;;;;0.00;0.00;;;16.60;58.10;;;;;;4195800;28;20546;-48
2021/04/01 10:49:00;;;;;;;0.00;0.00;;;16.60;58.10;;;;;;4195459;28;20072;-42
2021/04/01 10:51:23;;;;;;;0.00;0.00;;;16.60;58.40;;;;;;4195621;28;20106;-43
2021/04/01 10:53:44;;;;;;;0.00;0.00;;;16.60;58.40;;;;;;4195504;28;20088;-43
2021/04/01 10:56:08;;;;;;;0.00;0.00;;;16.60;58.60;;;;;;4195257;28;20404;-44
2021/04/01 10:58:29;;;;;;;0.00;0.00;;;16.50;58.80;;;;;;4195542;28;20107;-43
2021/04/01 11:00:53;;;;;;;0.10;0.10;;;16.60;58.10;;;;;;4195705;28;20517;-44
2021/04/01 11:03:18;;;;;;;0.85;0.65;;;16.50;58.20;;;;;;4195392;28;20505;-43
2021/04/01 11:05:41;;;;;;;0.00;0.00;;;16.50;58.10;;;;;;4195181;28;20506;-45
2021/04/01 11:08:08;;;;;;;0.25;0.25;;;16.50;57.90;;;;;;4195455;28;20049;-44
2021/04/01 11:10:30;;;;;;;0.00;0.00;;;16.50;57.80;;;;;;4195031;28;20052;-44
2021/04/01 11:12:54;;;;;;;0.00;0.00;;;16.40;57.70;;;;;;4194864;28;20060;-43
2021/04/01 11:15:17;;;;;;;0.00;0.00;;;16.40;57.50;;;;;;4194950;28;20048;-44
2021/04/01 11:17:44;;;;;;;0.08;0.08;;;16.40;57.50;;;;;;4195577;28;20105;-47
2021/04/01 11:20:08;;;;;;;0.35;0.35;;;16.50;57.40;;;;;;4195621;28;20119;-43
2021/04/01 11:22:30;;;;;;;5.88;0.40;;;16.50;57.50;;;;;;4195609;28;20056;-44
2021/04/01 11:24:51;;;;;;;0.10;0.10;;;16.50;57.50;;;;;;4195704;28;20056;-44
2021/04/01 11:27:13;;;;;;;;;;;16.50;57.60;;;;;;4196150;28;20056;-44
2021/04/01 11:29:34;;;;;;;;;;;16.50;57.70;;;;;;4196060;28;19925;-42
2021/04/01 11:31:56;;;;;;;0.75;0.75;;;16.50;57.80;;;;;;4195629;28;19920;-46
2021/04/01 11:34:18;;;;;;;0.00;0.00;;;16.50;57.30;;;;;;4195643;28;20056;-47
2021/04/01 11:36:44;;;;;;;0.10;0.10;;;16.50;57.10;;;;;;4195585;28;20442;-50
2021/04/01 11:39:14;;;;;;;0.00;0.00;;;16.50;57.30;;;;;;4198836;28;20076;-53
2021/04/01 11:41:46;;;;;;;0.00;0.00;;;16.50;57.00;;;;;;4198660;28;20059;-47
2021/04/01 11:44:11;;;;;;;0.00;0.00;;;16.50;56.80;;;;;;4199065;28;20390;-45
2021/04/01 11:46:32;;;;;;;0.00;0.00;;;16.40;56.60;;;;;;4198656;28;20074;-43
2021/04/01 11:48:54;;;;;;;0.32;0.32;;;16.50;56.80;;;;;;4198824;28;20052;-43
2021/04/01 11:51:19;;;;;;;0.00;0.00;;;16.50;56.80;;;;;;4198524;28;20405;-42
2021/04/01 11:53:41;;;;;;;0.28;0.28;;;16.50;56.70;;;;;;4198410;28;20106;-42
2021/04/01 11:56:02;;;;;;;0.00;0.00;;;16.40;56.50;;;;;;4198523;28;20131;-43
2021/04/01 11:58:23;;;;;;;0.00;0.00;;;16.40;56.60;;;;;;4198328;28;20044;-43
2021/04/01 12:00:46;;;;;;;;;;;16.40;56.50;;;;;;4198932;28;20128;-43
2021/04/01 12:03:10;;;;;;;0.52;0.30;;;16.40;56.10;;;;;;4198183;28;19924;-43
2021/04/01 12:05:37;;;;;;;0.63;0.63;;;16.40;55.90;;;;;;4198271;28;20136;-43
2021/04/01 12:08:00;;;;;;;0.00;0.00;;;16.40;56.00;;;;;;4197718;28;20084;-43
2021/04/01 12:10:23;;;;;;;0.20;0.20;;;16.40;56.20;;;;;;4197866;28;20062;-43
2021/04/01 12:12:44;;;;;;;0.05;0.05;;;16.30;56.20;;;;;;4198067;28;20059;-44
2021/04/01 12:15:06;;;;;;;0.43;0.43;;;16.30;56.00;;;;;;4197942;28;20487;-42
2021/04/01 12:17:32;;;;;;;0.10;0.10;;;16.40;56.20;;;;;;4197698;28;20052;-42
2021/04/01 12:19:53;;;;;;;0.00;0.00;;;16.30;56.00;;;;;;4197758;28;20113;-44
2021/04/01 12:22:14;;;;;;;0.10;0.10;;;16.30;56.20;;;;;;4197766;28;20102;-42
2021/04/01 12:24:37;;;;;;;0.03;0.03;;;16.30;56.30;;;;;;4197692;28;20049;-43
2021/04/01 12:26:59;;;;;;;0.00;0.00;;;16.30;57.00;;;;;;4197658;28;20056;-43
2021/04/01 12:29:22;;;;;;;0.00;0.00;;;16.30;56.40;;;;;;4197501;28;20077;-42
2021/04/01 12:31:47;;;;;;;0.00;0.00;;;16.30;56.40;;;;;;4197648;28;20082;-43
2021/04/01 12:34:10;;;;;;;0.25;0.25;;;16.20;56.40;;;;;;4197753;28;20080;-42
2021/04/01 12:36:34;;;;;;;0.00;0.00;;;16.30;56.40;;;;;;4196673;28;20048;-42
2021/04/01 12:38:57;;;;;;;0.00;0.00;;;16.20;56.50;;;;;;4197485;28;20045;-43
2021/04/01 12:41:26;;;;;;;;;;;16.20;56.70;;;;;;4197986;28;20410;-42
2021/04/01 12:43:49;;;;;;;0.00;0.00;;;16.20;56.80;;;;;;4197115;28;19925;-42
2021/04/01 12:46:10;;;;;;;0.10;0.10;;;16.20;56.90;;;;;;4197495;28;20755;-42
2021/04/01 12:48:38;;;;;;;0.00;0.00;;;16.20;57.00;;;;;;4197404;28;20702;-42
2021/04/01 12:51:00;;;;;;;0.00;0.00;;;16.10;57.00;;;;;;4197514;28;20151;-43
2021/04/01 12:53:24;;;;;;;0.00;0.00;;;16.10;57.10;;;;;;4197146;28;20056;-42
2021/04/01 12:55:48;;;;;;;0.00;0.00;;;16.10;57.20;;;;;;4180986;28;20412;-43
2021/04/01 12:58:12;;;;;;;0.10;0.10;;;16.10;57.40;;;;;;4183929;28;20048;-47
2021/04/01 13:00:42;;;;;;;0.20;0.20;;;16.00;57.30;;;;;;4197369;28;20465;-43
2021/04/01 13:03:03;;;;;;;0.00;0.00;;;16.00;57.40;;;;;;4197235;28;20060;-43
2021/04/01 13:05:24;;;;;;;;;;;16.00;57.30;;;;;;4197595;28;20060;-43
2021/04/01 13:07:52;;;;;;;0.00;0.00;;;15.90;57.20;;;;;;4196975;28;19925;-42
2021/04/01 13:12:49;;;;;;;0.08;0.08;;;15.90;57.30;;;;;;4196855;28;20060;-42
2021/04/01 13:15:10;;;;;;;;;;;15.80;57.30;;;;;;4197553;28;20071;-42
2021/04/01 13:17:32;;;;;;;0.00;0.00;;;15.80;57.40;;;;;;4195955;28;19924;-42
2021/04/01 13:19:54;;;;;;;0.00;0.00;;;15.80;57.60;;;;;;4197090;28;20102;-44
2021/04/01 13:22:21;;;;;;;0.00;0.00;;;15.80;57.60;;;;;;4197031;28;20059;-45